sensor_id;sensor_type;location;lat;lon;timestamp;P1;durP1;ratioP1;P2;durP2;ratioP2
13335;SDS011;6737;51.480;11.962;2023-06-14T00:00:42;3.20;;;1.60;;
13335;SDS011;6737;51.480;11.962;2023-06-14T00:03:10;3.40;;;1.67;;
13335;SDS011;6737;51.480;11.962;2023-06-14T00:05:37;2.47;;;1.67;;
13335;SDS011;6737;51.480;11.962;2023-06-14T00:08:11;2.83;;;1.60;;
13335;SDS011;6737;51.480;11.962;2023-06-14T00:10:37;2.55;;;1.70;;
13335;SDS011;6737;51.480;11.962;2023-06-14T00:13:04;6.28;;;1.65;;
13335;SDS011;6737;51.480;11.962;2023-06-14T00:15:33;3.08;;;1.60;;
13335;SDS011;6737;51.480;11.962;2023-06-14T00:17:59;3.38;;;1.67;;
13335;SDS011;6737;51.480;11.962;2023-06-14T00:20:28;3.00;;;1.80;;
13335;SDS011;6737;51.480;11.962;2023-06-14T00:22:56;3.80;;;1.80;;
13335;SDS011;6737;51.480;11.962;2023-06-14T00:25:22;2.60;;;1.60;;
13335;SDS011;6737;51.480;11.962;2023-06-14T00:27:52;3.70;;;1.60;;
13335;SDS011;6737;51.480;11.962;2023-06-14T00:30:19;3.78;;;1.60;;
13335;SDS011;6737;51.480;11.962;2023-06-14T00:32:45;2.75;;;1.80;;
13335;SDS011;6737;51.480;11.962;2023-06-14T00:35:11;3.63;;;1.80;;
13335;SDS011;6737;51.480;11.962;2023-06-14T00:37:37;4.03;;;1.73;;
13335;SDS011;6737;51.480;11.962;2023-06-14T00:40:03;2.75;;;1.65;;
13335;SDS011;6737;51.480;11.962;2023-06-14T00:42:30;2.25;;;1.73;;
13335;SDS011;6737;51.480;11.962;2023-06-14T00:44:57;1.98;;;1.73;;
13335;SDS011;6737;51.480;11.962;2023-06-14T00:47:23;2.25;;;1.88;;
13335;SDS011;6737;51.480;11.962;2023-06-14T00:54:44;5.13;;;2.00;;
13335;SDS011;6737;51.480;11.962;2023-06-14T01:07:04;4.03;;;1.70;;
13335;SDS011;6737;51.480;11.962;2023-06-14T01:12:40;3.53;;;1.80;;
13335;SDS011;6737;51.480;11.962;2023-06-14T01:15:06;3.43;;;1.63;;
13335;SDS011;6737;51.480;11.962;2023-06-14T01:17:32;3.77;;;1.90;;
13335;SDS011;6737;51.480;11.962;2023-06-14T01:20:03;3.73;;;1.70;;
13335;SDS011;6737;51.480;11.962;2023-06-14T01:22:34;3.60;;;1.63;;
13335;SDS011;6737;51.480;11.962;2023-06-14T01:25:01;3.17;;;1.80;;
13335;SDS011;6737;51.480;11.962;2023-06-14T01:27:27;4.17;;;1.83;;
13335;SDS011;6737;51.480;11.962;2023-06-14T01:29:57;3.53;;;2.00;;
13335;SDS011;6737;51.480;11.962;2023-06-14T01:32:27;2.73;;;1.70;;
13335;SDS011;6737;51.480;11.962;2023-06-14T01:34:54;2.40;;;1.90;;
13335;SDS011;6737;51.480;11.962;2023-06-14T01:37:20;3.97;;;1.90;;
13335;SDS011;6737;51.480;11.962;2023-06-14T01:39:47;4.17;;;1.87;;
13335;SDS011;6737;51.480;11.962;2023-06-14T01:42:15;2.13;;;1.80;;
13335;SDS011;6737;51.480;11.962;2023-06-14T01:44:42;3.33;;;1.70;;
13335;SDS011;6737;51.480;11.962;2023-06-14T01:47:09;2.13;;;1.80;;
13335;SDS011;6737;51.480;11.962;2023-06-14T01:49:35;3.00;;;1.73;;
13335;SDS011;6737;51.480;11.962;2023-06-14T01:52:03;2.53;;;2.00;;
13335;SDS011;6737;51.480;11.962;2023-06-14T01:54:29;3.27;;;1.80;;
13335;SDS011;6737;51.480;11.962;2023-06-14T01:56:56;3.77;;;1.93;;
13335;SDS011;6737;51.480;11.962;2023-06-14T01:59:22;4.00;;;1.90;;
13335;SDS011;6737;51.480;11.962;2023-06-14T02:01:48;3.73;;;2.07;;
13335;SDS011;6737;51.480;11.962;2023-06-14T02:04:14;4.43;;;1.97;;
13335;SDS011;6737;51.480;11.962;2023-06-14T02:06:40;3.20;;;2.03;;
13335;SDS011;6737;51.480;11.962;2023-06-14T02:09:05;2.53;;;1.90;;
13335;SDS011;6737;51.480;11.962;2023-06-14T02:11:31;5.30;;;2.10;;
13335;SDS011;6737;51.480;11.962;2023-06-14T02:13:57;4.07;;;1.80;;
13335;SDS011;6737;51.480;11.962;2023-06-14T02:16:25;3.23;;;1.77;;
13335;SDS011;6737;51.480;11.962;2023-06-14T02:18:53;1.73;;;1.60;;
13335;SDS011;6737;51.480;11.962;2023-06-14T02:21:19;3.00;;;2.10;;
13335;SDS011;6737;51.480;11.962;2023-06-14T02:23:44;4.27;;;1.80;;
13335;SDS011;6737;51.480;11.962;2023-06-14T02:26:10;1.93;;;1.70;;
13335;SDS011;6737;51.480;11.962;2023-06-14T02:28:36;2.97;;;1.77;;
13335;SDS011;6737;51.480;11.962;2023-06-14T02:31:02;4.40;;;1.80;;
13335;SDS011;6737;51.480;11.962;2023-06-14T02:33:27;4.60;;;2.10;;
13335;SDS011;6737;51.480;11.962;2023-06-14T02:35:53;3.60;;;2.10;;
13335;SDS011;6737;51.480;11.962;2023-06-14T02:38:19;2.30;;;1.83;;
13335;SDS011;6737;51.480;11.962;2023-06-14T02:40:44;3.33;;;2.10;;
13335;SDS011;6737;51.480;11.962;2023-06-14T02:43:11;2.30;;;1.93;;
13335;SDS011;6737;51.480;11.962;2023-06-14T02:45:36;2.93;;;1.63;;
13335;SDS011;6737;51.480;11.962;2023-06-14T02:48:02;3.43;;;2.13;;
13335;SDS011;6737;51.480;11.962;2023-06-14T02:50:28;2.30;;;1.97;;
13335;SDS011;6737;51.480;11.962;2023-06-14T02:52:55;4.67;;;2.10;;
13335;SDS011;6737;51.480;11.962;2023-06-14T02:55:22;4.30;;;2.10;;
13335;SDS011;6737;51.480;11.962;2023-06-14T02:57:48;3.33;;;1.80;;
13335;SDS011;6737;51.480;11.962;2023-06-14T03:00:14;3.60;;;2.20;;
13335;SDS011;6737;51.480;11.962;2023-06-14T03:02:40;3.87;;;2.17;;
13335;SDS011;6737;51.480;11.962;2023-06-14T03:05:07;2.13;;;1.80;;
13335;SDS011;6737;51.480;11.962;2023-06-14T03:07:35;4.27;;;2.10;;
13335;SDS011;6737;51.480;11.962;2023-06-14T03:10:01;3.23;;;1.80;;
13335;SDS011;6737;51.480;11.962;2023-06-14T03:12:28;2.30;;;2.00;;
13335;SDS011;6737;51.480;11.962;2023-06-14T03:14:53;3.57;;;1.90;;
13335;SDS011;6737;51.480;11.962;2023-06-14T03:17:22;5.20;;;2.10;;
13335;SDS011;6737;51.480;11.962;2023-06-14T03:19:49;3.70;;;1.90;;
13335;SDS011;6737;51.480;11.962;2023-06-14T03:22:15;2.47;;;1.80;;
13335;SDS011;6737;51.480;11.962;2023-06-14T03:24:41;6.30;;;2.33;;
13335;SDS011;6737;51.480;11.962;2023-06-14T03:27:08;5.07;;;2.27;;
13335;SDS011;6737;51.480;11.962;2023-06-14T03:29:35;4.33;;;2.00;;
13335;SDS011;6737;51.480;11.962;2023-06-14T03:32:01;2.70;;;2.10;;
13335;SDS011;6737;51.480;11.962;2023-06-14T03:34:28;3.57;;;2.27;;
13335;SDS011;6737;51.480;11.962;2023-06-14T03:36:54;4.10;;;2.30;;
13335;SDS011;6737;51.480;11.962;2023-06-14T03:39:20;4.27;;;2.83;;
13335;SDS011;6737;51.480;11.962;2023-06-14T03:41:46;2.50;;;2.03;;
13335;SDS011;6737;51.480;11.962;2023-06-14T03:44:14;4.47;;;2.23;;
13335;SDS011;6737;51.480;11.962;2023-06-14T03:46:42;3.20;;;2.03;;
13335;SDS011;6737;51.480;11.962;2023-06-14T03:49:07;3.57;;;2.30;;
13335;SDS011;6737;51.480;11.962;2023-06-14T03:51:33;3.57;;;2.10;;
13335;SDS011;6737;51.480;11.962;2023-06-14T03:54:00;3.20;;;1.90;;
13335;SDS011;6737;51.480;11.962;2023-06-14T03:56:26;2.93;;;2.20;;
13335;SDS011;6737;51.480;11.962;2023-06-14T03:58:52;2.90;;;2.30;;
13335;SDS011;6737;51.480;11.962;2023-06-14T04:01:18;4.30;;;2.53;;
13335;SDS011;6737;51.480;11.962;2023-06-14T04:03:43;5.93;;;2.50;;
13335;SDS011;6737;51.480;11.962;2023-06-14T04:06:09;3.33;;;2.40;;
13335;SDS011;6737;51.480;11.962;2023-06-14T04:08:35;2.67;;;2.23;;
13335;SDS011;6737;51.480;11.962;2023-06-14T04:11:01;2.27;;;2.00;;
13335;SDS011;6737;51.480;11.962;2023-06-14T04:13:27;2.93;;;2.30;;
13335;SDS011;6737;51.480;11.962;2023-06-14T04:15:53;5.67;;;2.10;;
13335;SDS011;6737;51.480;11.962;2023-06-14T04:18:19;4.37;;;2.23;;
13335;SDS011;6737;51.480;11.962;2023-06-14T04:20:46;3.83;;;2.20;;
13335;SDS011;6737;51.480;11.962;2023-06-14T04:23:12;3.27;;;2.20;;
13335;SDS011;6737;51.480;11.962;2023-06-14T04:25:43;6.10;;;2.50;;
13335;SDS011;6737;51.480;11.962;2023-06-14T04:28:12;4.33;;;2.53;;
13335;SDS011;6737;51.480;11.962;2023-06-14T04:30:42;3.70;;;2.50;;
13335;SDS011;6737;51.480;11.962;2023-06-14T04:33:09;3.03;;;2.57;;
13335;SDS011;6737;51.480;11.962;2023-06-14T04:35:36;3.00;;;2.43;;
13335;SDS011;6737;51.480;11.962;2023-06-14T04:38:05;4.00;;;2.67;;
13335;SDS011;6737;51.480;11.962;2023-06-14T04:40:34;3.90;;;2.73;;
13335;SDS011;6737;51.480;11.962;2023-06-14T04:43:08;2.63;;;2.40;;
13335;SDS011;6737;51.480;11.962;2023-06-14T04:45:37;7.40;;;2.57;;
13335;SDS011;6737;51.480;11.962;2023-06-14T04:48:05;5.13;;;2.83;;
13335;SDS011;6737;51.480;11.962;2023-06-14T04:50:31;3.77;;;2.77;;
13335;SDS011;6737;51.480;11.962;2023-06-14T04:52:58;3.93;;;2.70;;
13335;SDS011;6737;51.480;11.962;2023-06-14T04:55:24;3.60;;;2.60;;
13335;SDS011;6737;51.480;11.962;2023-06-14T04:57:51;4.53;;;2.60;;
13335;SDS011;6737;51.480;11.962;2023-06-14T05:00:19;4.03;;;2.77;;
13335;SDS011;6737;51.480;11.962;2023-06-14T05:02:46;7.00;;;3.20;;
13335;SDS011;6737;51.480;11.962;2023-06-14T05:05:14;5.60;;;3.00;;
13335;SDS011;6737;51.480;11.962;2023-06-14T05:07:40;5.47;;;2.97;;
13335;SDS011;6737;51.480;11.962;2023-06-14T05:10:06;4.77;;;3.13;;
13335;SDS011;6737;51.480;11.962;2023-06-14T05:12:32;5.93;;;3.03;;
13335;SDS011;6737;51.480;11.962;2023-06-14T05:14:59;5.33;;;2.83;;
13335;SDS011;6737;51.480;11.962;2023-06-14T05:17:25;3.20;;;2.90;;
13335;SDS011;6737;51.480;11.962;2023-06-14T05:19:53;4.47;;;2.70;;
13335;SDS011;6737;51.480;11.962;2023-06-14T05:22:21;6.13;;;3.27;;
13335;SDS011;6737;51.480;11.962;2023-06-14T05:24:47;7.70;;;3.00;;
13335;SDS011;6737;51.480;11.962;2023-06-14T05:27:13;6.60;;;3.20;;
13335;SDS011;6737;51.480;11.962;2023-06-14T05:29:39;3.53;;;3.20;;
13335;SDS011;6737;51.480;11.962;2023-06-14T05:32:05;3.40;;;2.90;;
13335;SDS011;6737;51.480;11.962;2023-06-14T05:34:31;5.37;;;3.30;;
13335;SDS011;6737;51.480;11.962;2023-06-14T05:36:57;5.43;;;3.10;;
13335;SDS011;6737;51.480;11.962;2023-06-14T05:39:24;9.27;;;3.60;;
13335;SDS011;6737;51.480;11.962;2023-06-14T05:41:49;4.73;;;3.30;;
13335;SDS011;6737;51.480;11.962;2023-06-14T05:44:15;4.37;;;3.50;;
13335;SDS011;6737;51.480;11.962;2023-06-14T05:46:41;4.27;;;3.20;;
13335;SDS011;6737;51.480;11.962;2023-06-14T05:49:07;4.40;;;3.40;;
13335;SDS011;6737;51.480;11.962;2023-06-14T05:51:33;5.97;;;3.57;;
13335;SDS011;6737;51.480;11.962;2023-06-14T05:53:58;6.57;;;3.40;;
13335;SDS011;6737;51.480;11.962;2023-06-14T05:56:24;4.50;;;3.53;;
13335;SDS011;6737;51.480;11.962;2023-06-14T05:58:51;4.73;;;3.43;;
13335;SDS011;6737;51.480;11.962;2023-06-14T06:01:17;5.23;;;3.50;;
13335;SDS011;6737;51.480;11.962;2023-06-14T06:03:43;3.97;;;3.10;;
13335;SDS011;6737;51.480;11.962;2023-06-14T06:06:13;5.03;;;3.63;;
13335;SDS011;6737;51.480;11.962;2023-06-14T06:08:39;4.13;;;3.73;;
13335;SDS011;6737;51.480;11.962;2023-06-14T06:11:06;6.93;;;4.13;;
13335;SDS011;6737;51.480;11.962;2023-06-14T06:13:32;5.20;;;4.00;;
13335;SDS011;6737;51.480;11.962;2023-06-14T06:15:57;5.77;;;4.00;;
13335;SDS011;6737;51.480;11.962;2023-06-14T06:18:23;4.80;;;4.00;;
13335;SDS011;6737;51.480;11.962;2023-06-14T06:20:49;4.60;;;3.67;;
13335;SDS011;6737;51.480;11.962;2023-06-14T06:23:15;6.57;;;3.60;;
13335;SDS011;6737;51.480;11.962;2023-06-14T06:25:40;5.43;;;3.87;;
13335;SDS011;6737;51.480;11.962;2023-06-14T06:28:07;5.43;;;4.07;;
13335;SDS011;6737;51.480;11.962;2023-06-14T06:30:33;5.13;;;3.90;;
13335;SDS011;6737;51.480;11.962;2023-06-14T06:33:01;5.73;;;3.60;;
13335;SDS011;6737;51.480;11.962;2023-06-14T06:35:28;7.10;;;3.70;;
13335;SDS011;6737;51.480;11.962;2023-06-14T06:37:55;4.77;;;4.00;;
13335;SDS011;6737;51.480;11.962;2023-06-14T06:40:21;10.73;;;3.60;;
13335;SDS011;6737;51.480;11.962;2023-06-14T06:42:47;4.53;;;3.70;;
13335;SDS011;6737;51.480;11.962;2023-06-14T06:45:12;4.87;;;3.87;;
13335;SDS011;6737;51.480;11.962;2023-06-14T06:47:38;4.73;;;3.63;;
13335;SDS011;6737;51.480;11.962;2023-06-14T06:50:04;4.87;;;3.50;;
13335;SDS011;6737;51.480;11.962;2023-06-14T06:52:32;4.47;;;3.43;;
13335;SDS011;6737;51.480;11.962;2023-06-14T06:54:58;5.17;;;3.50;;
13335;SDS011;6737;51.480;11.962;2023-06-14T06:57:24;4.63;;;3.20;;
13335;SDS011;6737;51.480;11.962;2023-06-14T06:59:50;3.50;;;3.20;;
13335;SDS011;6737;51.480;11.962;2023-06-14T07:02:16;4.80;;;3.53;;
13335;SDS011;6737;51.480;11.962;2023-06-14T07:04:42;8.40;;;3.67;;
13335;SDS011;6737;51.480;11.962;2023-06-14T07:07:08;4.83;;;3.20;;
13335;SDS011;6737;51.480;11.962;2023-06-14T07:09:35;3.67;;;3.27;;
13335;SDS011;6737;51.480;11.962;2023-06-14T07:12:01;4.60;;;3.40;;
13335;SDS011;6737;51.480;11.962;2023-06-14T07:14:27;3.77;;;2.87;;
13335;SDS011;6737;51.480;11.962;2023-06-14T07:16:54;3.57;;;2.90;;
13335;SDS011;6737;51.480;11.962;2023-06-14T07:19:20;3.67;;;3.23;;
13335;SDS011;6737;51.480;11.962;2023-06-14T07:21:46;4.17;;;2.80;;
13335;SDS011;6737;51.480;11.962;2023-06-14T07:24:11;4.83;;;3.10;;
13335;SDS011;6737;51.480;11.962;2023-06-14T07:26:37;7.10;;;2.90;;
13335;SDS011;6737;51.480;11.962;2023-06-14T07:29:03;4.40;;;3.28;;
13335;SDS011;6737;51.480;11.962;2023-06-14T07:31:29;5.78;;;3.17;;
13335;SDS011;6737;51.480;11.962;2023-06-14T07:33:55;3.42;;;2.88;;
13335;SDS011;6737;51.480;11.962;2023-06-14T07:36:21;3.85;;;3.25;;
13335;SDS011;6737;51.480;11.962;2023-06-14T07:38:47;3.40;;;3.10;;
13335;SDS011;6737;51.480;11.962;2023-06-14T07:41:13;4.13;;;2.80;;
13335;SDS011;6737;51.480;11.962;2023-06-14T07:43:39;7.25;;;2.90;;
13335;SDS011;6737;51.480;11.962;2023-06-14T07:46:05;4.47;;;3.00;;
13335;SDS011;6737;51.480;11.962;2023-06-14T07:48:31;6.32;;;3.10;;
13335;SDS011;6737;51.480;11.962;2023-06-14T07:50:57;5.28;;;3.28;;
13335;SDS011;6737;51.480;11.962;2023-06-14T07:53:22;3.78;;;2.90;;
13335;SDS011;6737;51.480;11.962;2023-06-14T07:55:50;4.95;;;3.05;;
13335;SDS011;6737;51.480;11.962;2023-06-14T07:58:16;3.10;;;2.80;;
13335;SDS011;6737;51.480;11.962;2023-06-14T08:00:42;3.47;;;3.10;;
13335;SDS011;6737;51.480;11.962;2023-06-14T08:03:08;4.95;;;2.85;;
13335;SDS011;6737;51.480;11.962;2023-06-14T08:05:34;3.10;;;2.80;;
13335;SDS011;6737;51.480;11.962;2023-06-14T08:08:00;6.95;;;2.95;;
13335;SDS011;6737;51.480;11.962;2023-06-14T08:10:25;6.60;;;3.10;;
13335;SDS011;6737;51.480;11.962;2023-06-14T08:12:51;4.15;;;2.72;;
13335;SDS011;6737;51.480;11.962;2023-06-14T08:15:17;4.10;;;2.83;;
13335;SDS011;6737;51.480;11.962;2023-06-14T08:17:43;5.10;;;2.75;;
13335;SDS011;6737;51.480;11.962;2023-06-14T08:20:10;3.45;;;3.03;;
13335;SDS011;6737;51.480;11.962;2023-06-14T08:22:37;5.55;;;2.92;;
13335;SDS011;6737;51.480;11.962;2023-06-14T08:25:04;4.28;;;3.00;;
13335;SDS011;6737;51.480;11.962;2023-06-14T08:27:32;4.55;;;2.72;;
13335;SDS011;6737;51.480;11.962;2023-06-14T08:29:57;4.93;;;2.70;;
13335;SDS011;6737;51.480;11.962;2023-06-14T08:32:23;3.33;;;3.00;;
13335;SDS011;6737;51.480;11.962;2023-06-14T08:34:49;5.13;;;2.97;;
13335;SDS011;6737;51.480;11.962;2023-06-14T08:37:15;5.07;;;3.38;;
13335;SDS011;6737;51.480;11.962;2023-06-14T08:39:41;4.32;;;2.97;;
13335;SDS011;6737;51.480;11.962;2023-06-14T08:42:07;3.83;;;3.00;;
13335;SDS011;6737;51.480;11.962;2023-06-14T08:44:35;4.65;;;3.25;;
13335;SDS011;6737;51.480;11.962;2023-06-14T08:47:01;4.40;;;3.10;;
13335;SDS011;6737;51.480;11.962;2023-06-14T08:49:28;5.18;;;2.90;;
13335;SDS011;6737;51.480;11.962;2023-06-14T08:51:57;6.47;;;2.90;;
13335;SDS011;6737;51.480;11.962;2023-06-14T08:54:27;4.45;;;2.72;;
13335;SDS011;6737;51.480;11.962;2023-06-14T08:56:59;5.25;;;2.75;;
13335;SDS011;6737;51.480;11.962;2023-06-14T08:59:26;3.50;;;2.75;;
13335;SDS011;6737;51.480;11.962;2023-06-14T09:01:53;3.08;;;2.75;;
13335;SDS011;6737;51.480;11.962;2023-06-14T09:04:22;2.97;;;2.65;;
13335;SDS011;6737;51.480;11.962;2023-06-14T09:06:55;3.10;;;2.78;;
13335;SDS011;6737;51.480;11.962;2023-06-14T09:09:21;4.30;;;3.10;;
13335;SDS011;6737;51.480;11.962;2023-06-14T09:11:49;3.10;;;2.80;;
13335;SDS011;6737;51.480;11.962;2023-06-14T09:14:15;4.85;;;2.90;;
13335;SDS011;6737;51.480;11.962;2023-06-14T09:16:41;5.63;;;2.53;;
13335;SDS011;6737;51.480;11.962;2023-06-14T09:19:07;5.35;;;2.50;;
13335;SDS011;6737;51.480;11.962;2023-06-14T09:21:36;4.55;;;2.72;;
13335;SDS011;6737;51.480;11.962;2023-06-14T09:24:02;4.90;;;2.77;;
13335;SDS011;6737;51.480;11.962;2023-06-14T09:26:29;3.03;;;2.70;;
13335;SDS011;6737;51.480;11.962;2023-06-14T09:28:55;3.60;;;2.70;;
13335;SDS011;6737;51.480;11.962;2023-06-14T09:31:21;3.40;;;2.78;;
13335;SDS011;6737;51.480;11.962;2023-06-14T09:33:50;4.80;;;2.97;;
13335;SDS011;6737;51.480;11.962;2023-06-14T09:36:23;6.03;;;3.00;;
13335;SDS011;6737;51.480;11.962;2023-06-14T09:39:03;4.00;;;2.70;;
13335;SDS011;6737;51.480;11.962;2023-06-14T09:41:37;3.10;;;2.70;;
13335;SDS011;6737;51.480;11.962;2023-06-14T09:44:05;2.83;;;2.55;;
13335;SDS011;6737;51.480;11.962;2023-06-14T09:46:32;3.38;;;2.70;;
13335;SDS011;6737;51.480;11.962;2023-06-14T09:48:59;3.72;;;2.70;;
13335;SDS011;6737;51.480;11.962;2023-06-14T09:51:27;3.00;;;2.58;;
13335;SDS011;6737;51.480;11.962;2023-06-14T09:53:58;3.47;;;2.40;;
13335;SDS011;6737;51.480;11.962;2023-06-14T09:56:29;5.15;;;2.60;;
13335;SDS011;6737;51.480;11.962;2023-06-14T09:58:57;4.20;;;2.40;;
13335;SDS011;6737;51.480;11.962;2023-06-14T10:01:24;2.80;;;2.30;;
13335;SDS011;6737;51.480;11.962;2023-06-14T10:03:55;5.10;;;2.40;;
13335;SDS011;6737;51.480;11.962;2023-06-14T10:06:26;4.88;;;2.25;;
13335;SDS011;6737;51.480;11.962;2023-06-14T10:08:55;5.85;;;2.05;;
13335;SDS011;6737;51.480;11.962;2023-06-14T10:11:25;4.63;;;2.15;;
13335;SDS011;6737;51.480;11.962;2023-06-14T10:13:51;2.10;;;1.90;;
13335;SDS011;6737;51.480;11.962;2023-06-14T10:16:26;6.55;;;1.95;;
13335;SDS011;6737;51.480;11.962;2023-06-14T10:19:07;3.80;;;1.90;;
13335;SDS011;6737;51.480;11.962;2023-06-14T10:22:10;5.80;;;2.00;;
13335;SDS011;6737;51.480;11.962;2023-06-14T10:24:42;2.40;;;1.80;;
13335;SDS011;6737;51.480;11.962;2023-06-14T10:27:09;3.25;;;2.10;;
13335;SDS011;6737;51.480;11.962;2023-06-14T10:32:22;3.70;;;1.77;;
13335;SDS011;6737;51.480;11.962;2023-06-14T10:34:59;3.00;;;2.05;;
13335;SDS011;6737;51.480;11.962;2023-06-14T10:37:26;4.32;;;2.05;;
13335;SDS011;6737;51.480;11.962;2023-06-14T10:39:52;4.57;;;1.83;;
13335;SDS011;6737;51.480;11.962;2023-06-14T10:42:18;2.60;;;1.77;;
13335;SDS011;6737;51.480;11.962;2023-06-14T10:44:45;2.83;;;2.05;;
13335;SDS011;6737;51.480;11.962;2023-06-14T10:47:24;3.13;;;1.85;;
13335;SDS011;6737;51.480;11.962;2023-06-14T10:49:55;3.13;;;1.70;;
13335;SDS011;6737;51.480;11.962;2023-06-14T10:52:37;5.53;;;1.90;;
13335;SDS011;6737;51.480;11.962;2023-06-14T10:55:08;5.30;;;2.17;;
13335;SDS011;6737;51.480;11.962;2023-06-14T10:57:43;2.88;;;2.28;;
13335;SDS011;6737;51.480;11.962;2023-06-14T11:00:17;3.70;;;2.10;;
13335;SDS011;6737;51.480;11.962;2023-06-14T11:08:37;2.28;;;1.80;;
13335;SDS011;6737;51.480;11.962;2023-06-14T11:11:05;6.03;;;2.10;;
13335;SDS011;6737;51.480;11.962;2023-06-14T11:13:33;3.55;;;2.03;;
13335;SDS011;6737;51.480;11.962;2023-06-14T11:15:59;2.67;;;1.80;;
13335;SDS011;6737;51.480;11.962;2023-06-14T11:18:25;2.60;;;1.83;;
13335;SDS011;6737;51.480;11.962;2023-06-14T11:20:52;3.17;;;2.03;;
13335;SDS011;6737;51.480;11.962;2023-06-14T11:23:18;3.05;;;2.22;;
13335;SDS011;6737;51.480;11.962;2023-06-14T11:25:51;4.95;;;2.15;;
13335;SDS011;6737;51.480;11.962;2023-06-14T11:28:18;3.80;;;2.00;;
13335;SDS011;6737;51.480;11.962;2023-06-14T11:30:47;4.65;;;2.20;;
13335;SDS011;6737;51.480;11.962;2023-06-14T11:33:17;3.30;;;2.13;;
13335;SDS011;6737;51.480;11.962;2023-06-14T11:35:44;3.50;;;1.90;;
13335;SDS011;6737;51.480;11.962;2023-06-14T11:38:10;3.65;;;2.53;;
13335;SDS011;6737;51.480;11.962;2023-06-14T11:40:37;3.60;;;2.22;;
13335;SDS011;6737;51.480;11.962;2023-06-14T11:43:03;2.55;;;2.03;;
13335;SDS011;6737;51.480;11.962;2023-06-14T11:45:30;3.65;;;2.22;;
13335;SDS011;6737;51.480;11.962;2023-06-14T11:47:56;4.60;;;2.50;;
13335;SDS011;6737;51.480;11.962;2023-06-14T11:50:26;3.58;;;2.22;;
13335;SDS011;6737;51.480;11.962;2023-06-14T11:52:56;3.40;;;2.35;;
13335;SDS011;6737;51.480;11.962;2023-06-14T11:55:25;3.67;;;2.58;;
13335;SDS011;6737;51.480;11.962;2023-06-14T11:57:52;4.10;;;2.20;;
13335;SDS011;6737;51.480;11.962;2023-06-14T12:00:22;2.50;;;2.30;;
13335;SDS011;6737;51.480;11.962;2023-06-14T12:02:54;2.65;;;2.20;;
13335;SDS011;6737;51.480;11.962;2023-06-14T12:05:23;3.80;;;2.75;;
13335;SDS011;6737;51.480;11.962;2023-06-14T12:07:57;4.07;;;2.60;;
13335;SDS011;6737;51.480;11.962;2023-06-14T12:10:25;2.67;;;2.13;;
13335;SDS011;6737;51.480;11.962;2023-06-14T12:12:56;3.72;;;2.17;;
13335;SDS011;6737;51.480;11.962;2023-06-14T12:15:23;46.10;;;6.30;;
13335;SDS011;6737;51.480;11.962;2023-06-14T12:17:49;4.38;;;2.40;;
13335;SDS011;6737;51.480;11.962;2023-06-14T12:20:15;3.50;;;2.40;;
13335;SDS011;6737;51.480;11.962;2023-06-14T12:22:54;16.08;;;2.80;;
13335;SDS011;6737;51.480;11.962;2023-06-14T12:25:31;4.97;;;2.92;;
13335;SDS011;6737;51.480;11.962;2023-06-14T12:28:06;5.53;;;2.25;;
13335;SDS011;6737;51.480;11.962;2023-06-14T12:30:33;2.60;;;2.28;;
13335;SDS011;6737;51.480;11.962;2023-06-14T12:33:03;4.05;;;2.67;;
13335;SDS011;6737;51.480;11.962;2023-06-14T12:35:30;5.75;;;2.78;;
13335;SDS011;6737;51.480;11.962;2023-06-14T12:37:56;3.35;;;2.78;;
13335;SDS011;6737;51.480;11.962;2023-06-14T12:40:22;5.40;;;3.40;;
13335;SDS011;6737;51.480;11.962;2023-06-14T12:42:48;4.00;;;2.35;;
13335;SDS011;6737;51.480;11.962;2023-06-14T12:45:14;4.07;;;2.80;;
13335;SDS011;6737;51.480;11.962;2023-06-14T12:47:41;7.60;;;3.03;;
13335;SDS011;6737;51.480;11.962;2023-06-14T12:50:07;6.28;;;2.92;;
13335;SDS011;6737;51.480;11.962;2023-06-14T12:52:33;4.68;;;2.40;;
13335;SDS011;6737;51.480;11.962;2023-06-14T12:55:03;4.20;;;2.67;;
13335;SDS011;6737;51.480;11.962;2023-06-14T12:57:30;4.80;;;2.70;;
13335;SDS011;6737;51.480;11.962;2023-06-14T12:59:56;5.90;;;2.50;;
13335;SDS011;6737;51.480;11.962;2023-06-14T13:02:22;6.93;;;2.60;;
13335;SDS011;6737;51.480;11.962;2023-06-14T13:04:49;5.22;;;2.70;;
13335;SDS011;6737;51.480;11.962;2023-06-14T13:07:15;5.72;;;2.60;;
13335;SDS011;6737;51.480;11.962;2023-06-14T13:09:42;2.72;;;2.53;;
13335;SDS011;6737;51.480;11.962;2023-06-14T13:12:09;6.35;;;3.00;;
13335;SDS011;6737;51.480;11.962;2023-06-14T13:14:41;3.67;;;2.75;;
13335;SDS011;6737;51.480;11.962;2023-06-14T13:17:08;5.15;;;2.83;;
13335;SDS011;6737;51.480;11.962;2023-06-14T13:19:35;4.05;;;2.88;;
13335;SDS011;6737;51.480;11.962;2023-06-14T13:22:01;5.05;;;2.80;;
13335;SDS011;6737;51.480;11.962;2023-06-14T13:24:27;5.65;;;3.05;;
13335;SDS011;6737;51.480;11.962;2023-06-14T13:26:55;5.50;;;2.95;;
13335;SDS011;6737;51.480;11.962;2023-06-14T13:29:22;5.35;;;2.88;;
13335;SDS011;6737;51.480;11.962;2023-06-14T13:31:48;4.72;;;3.00;;
13335;SDS011;6737;51.480;11.962;2023-06-14T13:34:14;5.18;;;2.78;;
13335;SDS011;6737;51.480;11.962;2023-06-14T13:36:40;7.75;;;2.70;;
13335;SDS011;6737;51.480;11.962;2023-06-14T13:39:06;10.63;;;3.00;;
13335;SDS011;6737;51.480;11.962;2023-06-14T13:41:31;6.20;;;2.72;;
13335;SDS011;6737;51.480;11.962;2023-06-14T13:43:59;6.75;;;2.40;;
13335;SDS011;6737;51.480;11.962;2023-06-14T13:46:26;5.13;;;2.85;;
13335;SDS011;6737;51.480;11.962;2023-06-14T13:48:52;3.50;;;2.75;;
13335;SDS011;6737;51.480;11.962;2023-06-14T13:51:18;3.60;;;2.60;;
13335;SDS011;6737;51.480;11.962;2023-06-14T13:53:50;4.18;;;2.90;;
13335;SDS011;6737;51.480;11.962;2023-06-14T13:56:18;7.15;;;2.90;;
13335;SDS011;6737;51.480;11.962;2023-06-14T13:58:44;4.85;;;3.08;;
13335;SDS011;6737;51.480;11.962;2023-06-14T14:01:10;6.88;;;3.20;;
13335;SDS011;6737;51.480;11.962;2023-06-14T14:03:37;3.17;;;2.72;;
13335;SDS011;6737;51.480;11.962;2023-06-14T14:06:03;3.20;;;2.63;;
13335;SDS011;6737;51.480;11.962;2023-06-14T14:08:30;5.18;;;2.65;;
13335;SDS011;6737;51.480;11.962;2023-06-14T14:10:55;5.18;;;2.75;;
13335;SDS011;6737;51.480;11.962;2023-06-14T14:13:21;6.00;;;2.95;;
13335;SDS011;6737;51.480;11.962;2023-06-14T14:15:47;3.63;;;2.90;;
13335;SDS011;6737;51.480;11.962;2023-06-14T14:18:17;3.65;;;2.50;;
13335;SDS011;6737;51.480;11.962;2023-06-14T14:20:45;3.67;;;2.75;;
13335;SDS011;6737;51.480;11.962;2023-06-14T14:23:11;4.20;;;2.70;;
13335;SDS011;6737;51.480;11.962;2023-06-14T14:25:37;4.03;;;2.78;;
13335;SDS011;6737;51.480;11.962;2023-06-14T14:28:02;5.40;;;2.80;;
13335;SDS011;6737;51.480;11.962;2023-06-14T14:30:29;4.40;;;2.85;;
13335;SDS011;6737;51.480;11.962;2023-06-14T14:32:54;5.75;;;2.40;;
13335;SDS011;6737;51.480;11.962;2023-06-14T14:35:20;3.10;;;2.80;;
13335;SDS011;6737;51.480;11.962;2023-06-14T14:37:47;3.40;;;2.65;;
13335;SDS011;6737;51.480;11.962;2023-06-14T14:40:13;6.45;;;2.40;;
13335;SDS011;6737;51.480;11.962;2023-06-14T14:42:39;6.10;;;2.53;;
13335;SDS011;6737;51.480;11.962;2023-06-14T14:45:05;2.78;;;2.50;;
13335;SDS011;6737;51.480;11.962;2023-06-14T14:47:31;4.03;;;2.60;;
13335;SDS011;6737;51.480;11.962;2023-06-14T14:49:57;5.25;;;2.70;;
13335;SDS011;6737;51.480;11.962;2023-06-14T14:52:23;2.97;;;2.67;;
13335;SDS011;6737;51.480;11.962;2023-06-14T14:54:50;5.05;;;2.80;;
13335;SDS011;6737;51.480;11.962;2023-06-14T14:57:16;3.85;;;2.55;;
13335;SDS011;6737;51.480;11.962;2023-06-14T14:59:41;4.65;;;2.80;;
13335;SDS011;6737;51.480;11.962;2023-06-14T15:02:07;6.75;;;2.58;;
13335;SDS011;6737;51.480;11.962;2023-06-14T15:04:33;6.65;;;2.90;;
13335;SDS011;6737;51.480;11.962;2023-06-14T15:06:59;4.88;;;3.00;;
13335;SDS011;6737;51.480;11.962;2023-06-14T15:09:25;5.68;;;2.70;;
13335;SDS011;6737;51.480;11.962;2023-06-14T15:11:50;5.68;;;2.60;;
13335;SDS011;6737;51.480;11.962;2023-06-14T15:14:16;3.80;;;2.55;;